createdAt,value
2023-03-17T00:01:37.576Z,95.66
2023-03-17T00:04:25.715Z,95.86
2023-03-17T00:07:06.602Z,95.89
2023-03-17T00:10:00.593Z,96.39
2023-03-17T00:12:47.593Z,96.12
2023-03-17T00:15:28.589Z,96.08
2023-03-17T00:18:23.577Z,96.19
2023-03-17T00:20:57.172Z,96.51
2023-03-17T00:23:43.579Z,96.72
2023-03-17T00:26:18.727Z,96.55
2023-03-17T00:29:08.597Z,96.41
2023-03-17T00:31:50.617Z,96.21
2023-03-17T00:34:44.590Z,96.40
2023-03-17T00:37:38.598Z,96.67
2023-03-17T00:40:37.594Z,96.83
2023-03-17T00:43:24.610Z,97.04
2023-03-17T00:45:57.762Z,96.70
2023-03-17T00:48:44.595Z,96.93
2023-03-17T00:51:18.795Z,96.46
2023-03-17T00:54:05.613Z,96.65
2023-03-17T00:56:38.702Z,96.48
2023-03-17T00:59:37.631Z,96.70
2023-03-17T01:02:11.797Z,96.73
2023-03-17T01:05:05.828Z,97.06
2023-03-17T01:07:39.697Z,96.99
2023-03-17T01:10:30.893Z,97.31
2023-03-17T01:13:05.770Z,97.41
2023-03-17T01:15:54.663Z,97.83
2023-03-17T01:18:29.867Z,97.44
2023-03-17T01:21:16.630Z,97.55
2023-03-17T01:23:49.757Z,97.46
2023-03-17T01:26:36.630Z,97.63
2023-03-17T01:29:17.600Z,97.95
2023-03-17T01:32:11.684Z,97.61
2023-03-17T01:34:58.620Z,97.58
2023-03-17T01:37:32.166Z,97.54
2023-03-17T01:40:23.612Z,97.91
2023-03-17T01:43:05.708Z,98.13
2023-03-17T01:46:20.635Z,97.96
2023-03-17T01:49:05.911Z,97.95
2023-03-17T01:52:24.616Z,98.03
2023-03-17T01:55:18.615Z,97.76
2023-03-17T01:58:13.612Z,97.65
2023-03-17T02:01:00.695Z,97.59
2023-03-17T02:03:34.724Z,97.88
2023-03-17T02:06:21.629Z,97.64
2023-03-17T02:08:55.632Z,97.93
2023-03-17T02:11:42.641Z,98.07
2023-03-17T02:14:19.661Z,98.12
2023-03-17T02:17:09.644Z,98.38
2023-03-17T02:19:45.767Z,98.42
2023-03-17T02:22:32.593Z,98.41
2023-03-17T02:25:06.535Z,98.15
2023-03-17T02:27:57.683Z,98.16
2023-03-17T02:30:31.049Z,98.14
2023-03-17T02:33:18.641Z,98.52
2023-03-17T02:35:51.977Z,98.63
2023-03-17T02:38:38.676Z,98.56
2023-03-17T02:41:12.710Z,98.20
2023-03-17T02:44:00.669Z,98.25
2023-03-17T02:46:33.775Z,98.66
2023-03-17T02:49:21.657Z,98.86
2023-03-17T02:51:55.010Z,98.82
2023-03-17T02:54:41.684Z,98.89
2023-03-17T02:57:15.921Z,98.64
2023-03-17T03:00:02.627Z,99.09
2023-03-17T03:02:42.760Z,98.65
2023-03-17T03:05:36.658Z,98.52
2023-03-17T03:08:23.663Z,98.66
2023-03-17T03:10:56.765Z,98.63
2023-03-17T03:13:44.648Z,98.72
2023-03-17T03:16:17.798Z,98.49
2023-03-17T03:19:04.688Z,98.42
2023-03-17T03:21:44.849Z,98.58
2023-03-17T03:24:31.658Z,98.74
2023-03-17T03:27:04.739Z,98.62
2023-03-17T03:29:51.666Z,99.29
2023-03-17T03:32:24.737Z,99.18
2023-03-17T03:35:11.682Z,99.07
2023-03-17T03:37:44.785Z,99.00
2023-03-17T03:40:32.165Z,99.29
2023-03-17T03:43:16.329Z,99.02
2023-03-17T03:46:09.646Z,99.44
2023-03-17T03:48:42.789Z,99.07
2023-03-17T03:51:29.668Z,99.42
2023-03-17T03:54:02.758Z,99.03
2023-03-17T03:56:49.650Z,99.22
2023-03-17T03:59:29.639Z,99.39
2023-03-17T04:02:23.805Z,99.45
2023-03-17T04:05:12.650Z,99.65
2023-03-17T04:07:45.895Z,99.49
2023-03-17T04:10:32.877Z,99.56
2023-03-17T04:13:06.776Z,99.37
2023-03-17T04:15:53.681Z,99.51
2023-03-17T04:18:26.741Z,99.73
2023-03-17T04:21:14.692Z,99.40
2023-03-17T04:23:54.689Z,98.95
2023-03-17T04:26:41.849Z,99.17
2023-03-17T04:29:16.142Z,99.58
2023-03-17T04:32:02.688Z,99.41
2023-03-17T04:34:43.681Z,99.37
2023-03-17T04:37:32.294Z,99.36
2023-03-17T04:40:14.721Z,99.20
2023-03-17T04:43:08.666Z,99.09
2023-03-17T04:46:02.736Z,99.15
2023-03-17T04:48:56.675Z,99.25
2023-03-17T04:51:43.671Z,99.46
2023-03-17T04:54:16.831Z,99.27
2023-03-17T04:57:03.680Z,99.29
2023-03-17T04:59:43.682Z,99.29
2023-03-17T05:02:37.714Z,99.11
2023-03-17T05:05:31.685Z,99.24
2023-03-17T05:08:25.705Z,99.29
2023-03-17T05:11:12.691Z,99.35
2023-03-17T05:13:47.012Z,99.51
2023-03-17T05:16:33.736Z,99.46
2023-03-17T05:19:06.897Z,99.70
2023-03-17T05:21:54.837Z,99.83
2023-03-17T05:24:34.685Z,100.00
2023-03-17T05:27:21.690Z,99.72
2023-03-17T05:29:54.788Z,99.76
2023-03-17T05:32:42.832Z,99.58
2023-03-17T05:35:19.904Z,99.72
2023-03-17T05:38:06.687Z,100.00
2023-03-17T05:40:39.780Z,100.00
2023-03-17T05:43:26.698Z,100.00
2023-03-17T05:46:00.382Z,100.00
2023-03-17T05:48:46.685Z,100.00
2023-03-17T05:51:19.801Z,100.00
2023-03-17T05:54:06.696Z,100.00
2023-03-17T05:56:40.417Z,100.00
2023-03-17T05:59:26.713Z,100.00
2023-03-17T06:01:59.796Z,100.00
2023-03-17T06:04:46.711Z,100.00
2023-03-17T06:07:20.593Z,100.00
2023-03-17T06:10:08.693Z,99.64
2023-03-17T06:12:41.913Z,99.52
2023-03-17T06:15:28.876Z,99.51
2023-03-17T06:18:02.816Z,99.50
2023-03-17T06:20:49.748Z,98.77
2023-03-17T06:23:23.869Z,97.96
2023-03-17T06:26:11.693Z,97.86
2023-03-17T06:28:44.821Z,97.14
2023-03-17T06:31:31.811Z,96.21
2023-03-17T06:34:11.694Z,96.63
2023-03-17T06:37:05.753Z,95.11
2023-03-17T06:39:59.711Z,94.95
2023-03-17T06:42:53.717Z,94.92
2023-03-17T06:45:40.713Z,94.17
2023-03-17T06:48:13.805Z,93.79
2023-03-17T06:51:00.718Z,92.80
2023-03-17T06:53:33.799Z,91.79
2023-03-17T06:56:29.863Z,91.13
2023-03-17T06:59:04.979Z,91.43
2023-03-17T07:01:58.795Z,89.73
2023-03-17T07:04:52.799Z,88.90
2023-03-17T07:07:41.702Z,89.08
2023-03-17T07:10:15.979Z,89.16
2023-03-17T07:13:02.720Z,88.61
2023-03-17T07:15:36.015Z,86.53
2023-03-17T07:18:23.734Z,87.85
2023-03-17T07:20:56.787Z,87.77
2023-03-17T07:23:43.736Z,86.91
2023-03-17T07:26:16.944Z,86.77
2023-03-17T07:29:03.790Z,86.01
2023-03-17T07:31:38.680Z,85.83
2023-03-17T07:34:25.715Z,85.01
2023-03-17T07:36:58.819Z,84.39
2023-03-17T07:39:46.741Z,84.36
2023-03-17T07:42:28.749Z,84.04
2023-03-17T07:45:16.720Z,83.49
2023-03-17T07:47:50.169Z,82.91
2023-03-17T07:50:36.722Z,81.65
2023-03-17T07:53:10.978Z,82.03
2023-03-17T07:55:57.726Z,80.61
2023-03-17T07:58:37.771Z,79.63
2023-03-17T08:01:31.799Z,77.36
2023-03-17T08:04:25.728Z,76.44
2023-03-17T08:07:12.811Z,76.06
2023-03-17T08:09:53.724Z,74.41
2023-03-17T08:12:41.743Z,71.90
2023-03-17T08:15:22.755Z,71.21
2023-03-17T08:18:16.783Z,69.85
2023-03-17T08:21:03.785Z,67.59
2023-03-17T08:23:43.737Z,69.13
2023-03-17T08:26:37.830Z,67.40
2023-03-17T08:29:24.760Z,66.52
2023-03-17T08:32:04.778Z,64.83
2023-03-17T08:34:58.764Z,63.36
2023-03-17T08:37:45.774Z,61.44
2023-03-17T08:40:29.179Z,61.99
2023-03-17T08:43:16.752Z,59.96
2023-03-17T08:45:56.785Z,60.58
2023-03-17T08:48:43.771Z,58.25
2023-03-17T08:51:24.811Z,57.34
2023-03-17T08:54:13.774Z,56.48
2023-03-17T08:56:47.883Z,56.93
2023-03-17T08:59:34.785Z,55.83
2023-03-17T09:02:14.784Z,55.01
2023-03-17T09:05:01.812Z,56.36
2023-03-17T09:07:34.964Z,55.17
2023-03-17T09:10:23.758Z,54.78
2023-03-17T09:13:09.804Z,54.46
2023-03-17T09:16:03.930Z,52.63
2023-03-17T09:18:58.784Z,51.00
2023-03-17T09:21:52.779Z,53.26
2023-03-17T09:24:39.770Z,52.03
2023-03-17T09:27:19.777Z,52.96
2023-03-17T09:30:06.765Z,52.52
2023-03-17T09:32:39.914Z,51.41
2023-03-17T09:35:26.800Z,51.70
2023-03-17T09:38:01.139Z,50.30
2023-03-17T09:40:59.791Z,50.89
2023-03-17T09:43:40.011Z,50.45
2023-03-17T09:47:13.823Z,50.35
2023-03-17T09:49:49.945Z,50.76
2023-03-17T09:52:40.793Z,51.14
2023-03-17T09:55:25.805Z,51.00
2023-03-17T09:58:19.805Z,50.59
2023-03-17T10:01:08.787Z,50.57
2023-03-17T10:03:42.810Z,51.79
2023-03-17T10:06:52.802Z,50.17
2023-03-17T10:10:08.911Z,50.01
2023-03-17T10:13:23.802Z,51.61
2023-03-17T10:16:10.831Z,50.61
2023-03-17T10:19:09.822Z,51.64
2023-03-17T10:22:04.788Z,51.67
2023-03-17T10:24:40.923Z,50.48
2023-03-17T10:27:27.811Z,48.76
2023-03-17T10:30:00.964Z,50.74
2023-03-17T10:32:48.894Z,50.38
2023-03-17T10:35:23.926Z,50.14
2023-03-17T10:38:25.864Z,49.65
2023-03-17T10:41:14.810Z,50.44
2023-03-17T10:44:03.836Z,49.52
2023-03-17T10:46:37.660Z,50.40
2023-03-17T10:49:24.805Z,49.92
2023-03-17T10:52:07.823Z,50.92
2023-03-17T10:55:02.846Z,50.91
2023-03-17T10:58:20.810Z,49.59
2023-03-17T11:01:07.854Z,49.51
2023-03-17T11:03:55.868Z,49.75
2023-03-17T11:06:47.933Z,48.40
2023-03-17T11:09:42.949Z,48.63
2023-03-17T11:13:02.840Z,49.40
2023-03-17T11:16:02.848Z,49.68
2023-03-17T11:18:49.833Z,46.84
2023-03-17T11:21:53.827Z,45.58
2023-03-17T11:24:54.833Z,48.00
2023-03-17T11:27:47.821Z,48.87
2023-03-17T11:30:47.437Z,47.38
2023-03-17T11:33:40.836Z,48.31
2023-03-17T11:36:17.324Z,48.62
2023-03-17T11:39:29.871Z,48.84
2023-03-17T11:42:19.861Z,48.73
2023-03-17T11:45:15.850Z,48.75
2023-03-17T11:48:14.834Z,48.86
2023-03-17T11:51:21.849Z,47.10
2023-03-17T11:54:48.869Z,48.76
2023-03-17T11:58:03.859Z,48.83
2023-03-17T12:01:03.825Z,49.16
2023-03-17T12:04:03.064Z,49.28
2023-03-17T12:06:57.171Z,48.58
2023-03-17T12:09:59.861Z,46.28
2023-03-17T12:13:00.836Z,48.32
2023-03-17T12:16:10.959Z,48.92
2023-03-17T12:18:59.966Z,49.07
2023-03-17T12:22:09.844Z,48.97
2023-03-17T12:24:47.969Z,48.16
2023-03-17T12:27:45.922Z,48.51
2023-03-17T12:30:47.973Z,48.24
2023-03-17T12:33:42.854Z,48.17
2023-03-17T12:36:19.973Z,48.22
2023-03-17T12:39:12.862Z,47.96
2023-03-17T12:42:08.883Z,48.50
2023-03-17T12:45:14.852Z,48.18
2023-03-17T12:47:56.960Z,48.80
2023-03-17T12:51:12.859Z,47.24
2023-03-17T12:53:50.766Z,48.40
2023-03-17T12:56:39.917Z,47.78
2023-03-17T12:59:26.845Z,48.05
2023-03-17T13:02:41.862Z,47.88
2023-03-17T13:05:45.844Z,47.64
2023-03-17T13:08:41.897Z,48.95
2023-03-17T13:11:30.862Z,48.19
2023-03-17T13:14:40.890Z,48.04
2023-03-17T13:17:27.883Z,48.58
2023-03-17T13:20:29.989Z,49.52
2023-03-17T13:23:16.868Z,49.35
2023-03-17T13:26:05.860Z,49.03
2023-03-17T13:29:02.888Z,49.04
2023-03-17T13:31:49.877Z,48.25
2023-03-17T13:34:26.981Z,47.82
2023-03-17T13:37:36.867Z,47.81
2023-03-17T13:40:44.890Z,47.39
2023-03-17T13:43:52.891Z,46.71
2023-03-17T13:46:32.109Z,48.02
2023-03-17T13:49:28.889Z,47.52
2023-03-17T13:52:27.902Z,47.89
2023-03-17T13:55:23.987Z,47.68
2023-03-17T13:58:21.980Z,47.53
2023-03-17T14:01:12.958Z,47.69
2023-03-17T14:03:50.115Z,48.94
2023-03-17T14:06:37.891Z,48.51
2023-03-17T14:09:29.915Z,49.22
2023-03-17T14:12:35.890Z,48.05
2023-03-17T14:15:35.892Z,47.75
2023-03-17T14:18:32.906Z,48.66
2023-03-17T14:21:37.902Z,48.43
2023-03-17T14:24:45.883Z,48.67
2023-03-17T14:27:47.904Z,48.38
2023-03-17T14:30:37.911Z,49.70
2023-03-17T14:33:11.099Z,49.50
2023-03-17T14:35:59.928Z,48.39
2023-03-17T14:38:48.918Z,49.16
2023-03-17T14:41:42.899Z,48.60
2023-03-17T14:44:29.949Z,48.70
2023-03-17T14:47:12.352Z,47.70
2023-03-17T14:50:01.905Z,48.21
2023-03-17T14:52:41.207Z,48.79
2023-03-17T14:55:27.913Z,49.06
2023-03-17T14:58:07.954Z,49.07
2023-03-17T15:01:02.978Z,48.86
2023-03-17T15:03:39.055Z,48.67
2023-03-17T15:06:32.937Z,49.36
2023-03-17T15:09:10.035Z,49.45
2023-03-17T15:11:56.961Z,49.11
2023-03-17T15:15:19.020Z,49.12
2023-03-17T15:18:09.932Z,48.40
2023-03-17T15:20:49.943Z,49.36
2023-03-17T15:23:45.948Z,49.22
2023-03-17T15:26:41.927Z,49.18
2023-03-17T15:29:35.929Z,48.87
2023-03-17T15:32:27.025Z,48.99
2023-03-17T15:35:03.014Z,49.51
2023-03-17T15:37:49.945Z,49.53
2023-03-17T15:40:30.221Z,49.70
2023-03-17T15:43:30.956Z,49.04
2023-03-17T15:46:28.993Z,49.28
2023-03-17T15:49:02.056Z,50.15
2023-03-17T15:51:48.936Z,50.44
2023-03-17T15:54:31.934Z,50.41
2023-03-17T15:57:25.960Z,50.87
2023-03-17T16:00:13.975Z,50.70
2023-03-17T16:02:48.106Z,50.84
2023-03-17T16:05:37.943Z,51.65
2023-03-17T16:08:17.990Z,51.38
2023-03-17T16:11:04.941Z,52.13
2023-03-17T16:13:37.998Z,51.35
2023-03-17T16:16:30.950Z,52.25
2023-03-17T16:19:05.307Z,52.43
2023-03-17T16:21:51.961Z,52.64
2023-03-17T16:24:34.764Z,52.86
2023-03-17T16:27:21.938Z,53.63
2023-03-17T16:29:55.057Z,54.45
2023-03-17T16:32:41.982Z,55.42
2023-03-17T16:35:48.993Z,54.25
2023-03-17T16:38:45.973Z,54.22
2023-03-17T16:41:33.968Z,55.47
2023-03-17T16:44:09.472Z,56.58
2023-03-17T16:46:56.045Z,57.32
2023-03-17T16:49:29.390Z,56.92
2023-03-17T16:52:16.981Z,58.87
2023-03-17T16:54:50.238Z,58.56
2023-03-17T16:57:36.972Z,58.95
2023-03-17T17:00:15.502Z,59.23
2023-03-17T17:03:09.002Z,60.04
2023-03-17T17:06:02.983Z,60.68
2023-03-17T17:08:50.979Z,59.92
2023-03-17T17:11:32.984Z,60.22
2023-03-17T17:14:26.993Z,61.42
2023-03-17T17:17:13.981Z,61.70
2023-03-17T17:19:47.057Z,61.12
2023-03-17T17:22:35.005Z,62.04
2023-03-17T17:25:10.036Z,62.32
2023-03-17T17:27:56.994Z,62.20
2023-03-17T17:30:33.647Z,63.16
2023-03-17T17:33:23.001Z,64.35
2023-03-17T17:35:57.194Z,64.46
2023-03-17T17:38:43.991Z,65.01
2023-03-17T17:41:21.627Z,65.38
2023-03-17T17:44:07.986Z,65.42
2023-03-17T17:46:48.056Z,65.27
2023-03-17T17:49:34.980Z,65.63
2023-03-17T17:52:14.998Z,66.23
2023-03-17T17:55:09.003Z,66.37
2023-03-17T17:57:55.981Z,67.40
2023-03-17T18:00:30.231Z,66.81
2023-03-17T18:03:23.999Z,67.17
2023-03-17T18:06:11.978Z,68.74
2023-03-17T18:08:53.024Z,68.44
2023-03-17T18:11:47.977Z,69.50
2023-03-17T18:14:34.992Z,69.40
2023-03-17T18:17:08.670Z,70.19
2023-03-17T18:20:02.015Z,69.83
2023-03-17T18:22:35.107Z,70.42
2023-03-17T18:25:22.005Z,70.48
2023-03-17T18:28:01.998Z,70.47
2023-03-17T18:30:56.991Z,71.54
2023-03-17T18:33:53.019Z,71.18
2023-03-17T18:36:46.987Z,72.21
2023-03-17T18:39:35.004Z,72.28
2023-03-17T18:42:16.036Z,72.35
2023-03-17T18:45:13.171Z,72.43
2023-03-17T18:48:07.002Z,72.90
2023-03-17T18:51:01.030Z,72.93
2023-03-17T18:53:48.016Z,73.16
2023-03-17T18:56:23.331Z,73.21
2023-03-17T18:59:10.106Z,73.58
2023-03-17T19:01:50.017Z,73.58
2023-03-17T19:04:44.039Z,74.37
2023-03-17T19:07:31.018Z,74.41
2023-03-17T19:10:11.012Z,74.00
2023-03-17T19:12:59.034Z,75.20
2023-03-17T19:15:32.155Z,74.86
2023-03-17T19:18:19.029Z,75.87
2023-03-17T19:20:52.573Z,75.54
2023-03-17T19:23:40.008Z,76.31
2023-03-17T19:26:20.019Z,75.76
2023-03-17T19:29:07.029Z,75.45
2023-03-17T19:31:48.723Z,75.75
2023-03-17T19:34:36.011Z,76.12
2023-03-17T19:37:10.120Z,76.50
2023-03-17T19:39:57.059Z,77.12
2023-03-17T19:42:40.027Z,76.92
2023-03-17T19:45:34.043Z,77.07
2023-03-17T19:48:21.032Z,77.44
2023-03-17T19:51:01.052Z,76.94
2023-03-17T19:53:48.024Z,77.14
2023-03-17T19:56:21.241Z,76.42
2023-03-17T19:59:09.139Z,77.07
2023-03-17T20:01:43.188Z,77.27
2023-03-17T20:04:37.127Z,77.50
2023-03-17T20:07:31.065Z,77.15
2023-03-17T20:10:26.080Z,77.35
2023-03-17T20:13:23.051Z,77.00
2023-03-17T20:16:19.089Z,77.28
2023-03-17T20:19:07.066Z,76.94
2023-03-17T20:21:40.867Z,77.27
2023-03-17T20:24:28.051Z,77.61
2023-03-17T20:27:08.099Z,77.60
2023-03-17T20:29:55.047Z,78.55
2023-03-17T20:32:35.074Z,78.23
2023-03-17T20:35:29.041Z,78.25
2023-03-17T20:38:21.044Z,78.47
2023-03-17T20:40:54.202Z,78.39
2023-03-17T20:43:44.065Z,79.11
2023-03-17T20:46:23.712Z,79.34
2023-03-17T20:49:12.091Z,79.60
2023-03-17T20:51:46.461Z,79.26
2023-03-17T20:54:33.059Z,79.75
2023-03-17T20:57:13.055Z,79.81
2023-03-17T21:00:00.092Z,80.08
2023-03-17T21:02:33.197Z,80.10
2023-03-17T21:05:29.100Z,80.28
2023-03-17T21:08:16.047Z,80.63
2023-03-17T21:10:49.172Z,80.14
2023-03-17T21:13:37.073Z,80.78
2023-03-17T21:16:10.206Z,81.09
2023-03-17T21:18:58.073Z,81.25
2023-03-17T21:21:31.197Z,81.42
2023-03-17T21:24:35.083Z,81.60
2023-03-17T21:27:11.264Z,81.26
2023-03-17T21:29:59.086Z,81.56
2023-03-17T21:32:32.277Z,81.62
2023-03-17T21:35:19.081Z,82.20
2023-03-17T21:37:52.456Z,82.12
2023-03-17T21:40:39.058Z,82.07
2023-03-17T21:43:12.199Z,82.20
2023-03-17T21:45:59.143Z,82.55
2023-03-17T21:48:39.101Z,82.45
2023-03-17T21:51:27.071Z,83.00
2023-03-17T21:54:00.187Z,82.86
2023-03-17T21:56:48.085Z,83.27
2023-03-17T21:59:29.084Z,82.94
2023-03-17T22:02:19.078Z,83.49
2023-03-17T22:04:52.205Z,83.29
2023-03-17T22:07:39.092Z,83.33
2023-03-17T22:10:12.240Z,83.19
2023-03-17T22:12:59.084Z,83.45
2023-03-17T22:15:39.080Z,83.56
2023-03-17T22:18:34.088Z,83.71
2023-03-17T22:21:21.084Z,83.86
2023-03-17T22:23:55.185Z,84.04
2023-03-17T22:26:42.129Z,84.07
2023-03-17T22:29:15.315Z,84.09
2023-03-17T22:32:02.092Z,84.65
2023-03-17T22:34:42.099Z,84.63
2023-03-17T22:37:36.101Z,84.84
2023-03-17T22:40:26.119Z,84.68
2023-03-17T22:43:09.098Z,84.82
2023-03-17T22:45:56.138Z,85.19
2023-03-17T22:48:29.304Z,84.80
2023-03-17T22:51:19.106Z,84.88
2023-03-17T22:53:59.113Z,85.24
2023-03-17T22:56:46.100Z,85.50
2023-03-17T22:59:19.191Z,85.36
2023-03-17T23:02:06.164Z,85.35
2023-03-17T23:04:47.102Z,85.47
2023-03-17T23:07:50.333Z,85.44
2023-03-17T23:10:44.102Z,85.36
2023-03-17T23:13:38.146Z,85.96
2023-03-17T23:16:27.144Z,85.86
2023-03-17T23:19:01.338Z,85.86
2023-03-17T23:21:48.157Z,86.33
2023-03-17T23:24:28.122Z,86.08
2023-03-17T23:27:15.193Z,86.67
2023-03-17T23:29:48.205Z,86.36
2023-03-17T23:32:35.304Z,86.73
2023-03-17T23:35:08.611Z,86.94
2023-03-17T23:37:55.192Z,86.85
2023-03-17T23:40:36.195Z,86.68
2023-03-17T23:43:30.127Z,87.13
2023-03-17T23:46:20.151Z,87.19
2023-03-17T23:49:02.100Z,87.41
2023-03-17T23:51:49.154Z,87.47
2023-03-17T23:54:22.959Z,87.83
2023-03-17T23:57:10.102Z,87.62
2023-03-17T23:59:43.516Z,87.49
